Time;durP1;ratioP1;P1;durP2;ratioP2;P2;SDS_P1;SDS_P2;PMS_P1;PMS_P2;Temp;Humidity;BMP_temperature;BMP_pressure;BME280_temperature;BME280_humidity;BME280_pressure;Samples;Min_cycle;Max_cycle;Signal;HPM_P1;HPM_P2
2021/10/06 00:00:57;;;;;;;0.00;0.00;;;12.60;99.90;;;;;;5056303;28;20404;-76
2021/10/06 00:03:23;;;;;;;0.00;0.00;;;12.70;99.90;;;;;;5056240;28;20483;-76
2021/10/06 00:05:49;;;;;;;0.00;0.00;;;12.60;99.90;;;;;;5055476;28;20034;-76
2021/10/06 00:08:14;;;;;;;0.00;0.00;;;12.60;99.90;;;;;;5055928;28;20033;-76
2021/10/06 00:10:40;;;;;;;0.68;0.63;;;12.60;99.90;;;;;;5056127;28;20507;-76
2021/10/06 00:13:05;;;;;;;0.00;0.00;;;12.60;99.90;;;;;;5055866;28;20491;-76
2021/10/06 00:15:31;;;;;;;0.00;0.00;;;12.50;99.90;;;;;;5055664;28;20036;-76
2021/10/06 00:17:57;;;;;;;0.00;0.00;;;12.50;99.90;;;;;;5055825;28;20025;-76
2021/10/06 00:20:23;;;;;;;0.00;0.00;;;12.50;99.90;;;;;;5055918;28;20035;-76
2021/10/06 00:22:48;;;;;;;0.00;0.00;;;12.50;99.90;;;;;;5056002;28;20029;-76
2021/10/06 00:25:14;;;;;;;0.00;0.00;;;12.50;99.90;;;;;;5055330;28;20135;-76
2021/10/06 00:27:40;;;;;;;1.27;0.85;;;12.40;99.90;;;;;;5055871;28;20086;-76
2021/10/06 00:30:06;;;;;;;0.00;0.00;;;12.40;99.90;;;;;;5055675;28;20139;-74
2021/10/06 00:32:31;;;;;;;2.80;1.13;;;12.40;99.90;;;;;;5055645;28;20096;-76
2021/10/06 00:34:57;;;;;;;0.00;0.00;;;12.40;99.90;;;;;;5055694;28;20049;-76
2021/10/06 00:37:23;;;;;;;0.70;0.47;;;12.40;99.90;;;;;;5055573;28;20025;-76
2021/10/06 00:39:48;;;;;;;0.00;0.00;;;12.40;99.90;;;;;;5055472;28;20029;-76
2021/10/06 00:42:14;;;;;;;0.00;0.00;;;12.40;99.90;;;;;;5055585;28;20037;-76
2021/10/06 00:44:40;;;;;;;2.53;1.95;;;12.50;99.90;;;;;;5055643;28;20029;-76
2021/10/06 00:47:10;;;;;;;0.00;0.00;;;12.50;99.90;;;;;;5055322;28;20025;-76
2021/10/06 00:49:36;;;;;;;0.20;0.20;;;12.60;99.90;;;;;;5055514;28;20021;-76
2021/10/06 00:52:02;;;;;;;0.00;0.00;;;12.60;99.90;;;;;;5055316;28;20020;-76
2021/10/06 00:54:28;;;;;;;0.00;0.00;;;12.60;99.90;;;;;;5055262;28;20029;-76
2021/10/06 00:56:54;;;;;;;0.00;0.00;;;12.50;99.90;;;;;;5055306;28;20103;-76
2021/10/06 00:59:19;;;;;;;0.00;0.00;;;12.50;99.90;;;;;;5055082;28;20040;-76
2021/10/06 01:01:45;;;;;;;0.00;0.00;;;12.40;99.90;;;;;;5055092;28;20021;-76
2021/10/06 01:04:11;;;;;;;0.00;0.00;;;12.40;99.90;;;;;;5054315;28;20040;-75
2021/10/06 01:06:37;;;;;;;0.00;0.00;;;12.40;99.90;;;;;;5054120;28;20466;-76
2021/10/06 01:09:03;;;;;;;0.15;0.15;;;12.40;99.90;;;;;;5062460;28;20028;-76
2021/10/06 01:11:29;;;;;;;0.00;0.00;;;12.30;99.90;;;;;;5073929;28;20438;-76
2021/10/06 01:13:56;;;;;;;0.88;0.80;;;12.30;99.90;;;;;;5074927;28;20426;-76
2021/10/06 01:16:23;;;;;;;0.00;0.00;;;12.20;99.90;;;;;;5074422;28;20017;-75
2021/10/06 01:18:49;;;;;;;0.30;0.30;;;12.30;99.90;;;;;;5074705;28;20055;-76
2021/10/06 01:21:16;;;;;;;0.00;0.00;;;12.30;99.90;;;;;;5074761;28;20028;-76
2021/10/06 01:23:44;;;;;;;0.32;0.32;;;12.40;99.90;;;;;;5074514;28;20134;-76
2021/10/06 01:26:11;;;;;;;4.57;1.38;;;12.50;99.90;;;;;;5074487;28;20025;-76
2021/10/06 01:28:37;;;;;;;0.10;0.10;;;12.50;99.90;;;;;;5055275;28;20032;-75
2021/10/06 01:31:03;;;;;;;0.00;0.00;;;12.60;99.90;;;;;;5054537;28;20541;-76
2021/10/06 01:33:29;;;;;;;0.15;0.15;;;12.60;99.90;;;;;;5054515;28;20021;-76
2021/10/06 01:35:55;;;;;;;0.00;0.00;;;12.60;99.90;;;;;;5054786;28;20396;-76
2021/10/06 01:38:21;;;;;;;0.00;0.00;;;12.60;99.90;;;;;;5052666;28;20033;-76
2021/10/06 01:40:47;;;;;;;0.00;0.00;;;12.50;99.90;;;;;;5054394;28;20022;-76
2021/10/06 01:43:13;;;;;;;0.00;0.00;;;12.50;99.90;;;;;;5054350;28;20105;-76
2021/10/06 01:45:41;;;;;;;0.00;0.00;;;12.50;99.90;;;;;;5054256;28;20021;-76
2021/10/06 01:48:10;;;;;;;0.00;0.00;;;12.40;99.90;;;;;;5054295;28;20064;-76
2021/10/06 01:50:42;;;;;;;1.45;0.30;;;12.40;99.90;;;;;;5054232;28;20055;-76
2021/10/06 01:53:11;;;;;;;0.00;0.00;;;12.40;99.90;;;;;;5054118;28;20017;-76
2021/10/06 01:55:37;;;;;;;0.10;0.10;;;12.30;99.90;;;;;;5054172;28;20043;-76
2021/10/06 01:58:10;;;;;;;0.00;0.00;;;12.30;99.90;;;;;;5053327;28;20074;-75
2021/10/06 02:00:37;;;;;;;0.00;0.00;;;12.30;99.90;;;;;;5053841;28;20553;-76
2021/10/06 02:03:03;;;;;;;0.00;0.00;;;12.30;99.90;;;;;;5053956;28;20096;-76
2021/10/06 02:05:29;;;;;;;0.00;0.00;;;12.20;99.90;;;;;;5054005;28;20045;-76
2021/10/06 02:07:54;;;;;;;0.00;0.00;;;12.20;99.90;;;;;;5053003;28;20021;-76
2021/10/06 02:10:21;;;;;;;0.35;0.35;;;12.20;99.90;;;;;;5053694;28;20028;-76
2021/10/06 02:12:46;;;;;;;1.35;1.25;;;12.20;99.90;;;;;;5053801;28;20027;-76
2021/10/06 02:15:12;;;;;;;0.00;0.00;;;12.30;99.90;;;;;;5052694;28;20468;-76
2021/10/06 02:17:38;;;;;;;0.00;0.00;;;12.30;99.90;;;;;;5053355;28;20074;-76
2021/10/06 02:20:05;;;;;;;0.05;0.05;;;12.40;99.90;;;;;;5053718;28;20025;-76
2021/10/06 02:22:31;;;;;;;0.00;0.00;;;12.50;99.90;;;;;;5053837;28;20151;-76
2021/10/06 02:24:57;;;;;;;0.00;0.00;;;12.50;99.90;;;;;;5053552;28;20561;-76
2021/10/06 02:27:23;;;;;;;0.25;0.05;;;12.60;99.90;;;;;;5053513;28;20396;-76
2021/10/06 02:29:48;;;;;;;0.00;0.00;;;12.60;99.90;;;;;;5053271;28;20021;-76
2021/10/06 02:32:14;;;;;;;0.13;0.13;;;12.60;99.90;;;;;;5053270;28;20550;-76
2021/10/06 02:34:39;;;;;;;0.00;0.00;;;12.70;99.90;;;;;;5053588;28;20544;-76
2021/10/06 02:37:05;;;;;;;0.00;0.00;;;12.70;99.90;;;;;;5053294;28;20549;-75
2021/10/06 02:39:31;;;;;;;0.00;0.00;;;12.70;99.90;;;;;;5050853;28;20033;-76
2021/10/06 02:41:56;;;;;;;0.00;0.00;;;12.80;99.90;;;;;;5053225;28;20395;-76
2021/10/06 02:44:22;;;;;;;0.25;0.25;;;12.80;99.90;;;;;;5053026;28;20036;-76
2021/10/06 02:46:48;;;;;;;0.00;0.00;;;12.80;99.90;;;;;;5053141;28;20025;-76
2021/10/06 02:49:13;;;;;;;0.00;0.00;;;12.80;99.90;;;;;;5052940;28;20108;-77
2021/10/06 02:51:39;;;;;;;0.00;0.00;;;12.80;99.90;;;;;;5053074;28;20021;-76
2021/10/06 02:54:05;;;;;;;0.10;0.10;;;12.80;99.90;;;;;;5053016;28;20029;-76
2021/10/06 02:56:30;;;;;;;0.00;0.00;;;12.70;99.90;;;;;;5052981;28;20048;-76
2021/10/06 02:58:56;;;;;;;0.00;0.00;;;12.70;99.90;;;;;;5052919;28;20535;-76
2021/10/06 03:01:21;;;;;;;0.10;0.10;;;12.60;99.90;;;;;;5052782;28;20032;-76
2021/10/06 03:03:47;;;;;;;0.00;0.00;;;12.50;99.90;;;;;;5052890;28;20380;-76
2021/10/06 03:06:13;;;;;;;0.55;0.55;;;12.40;99.90;;;;;;5052911;28;20495;-76
2021/10/06 03:08:38;;;;;;;0.00;0.00;;;12.40;99.90;;;;;;5052189;28;20021;-76
2021/10/06 03:11:04;;;;;;;0.00;0.00;;;12.30;99.90;;;;;;5052673;28;20049;-76
2021/10/06 03:13:30;;;;;;;0.10;0.10;;;12.20;99.90;;;;;;5052786;28;20032;-76
2021/10/06 03:15:58;;;;;;;0.00;0.00;;;12.10;99.90;;;;;;5052232;28;20036;-76
2021/10/06 03:18:24;;;;;;;0.00;0.00;;;12.10;99.90;;;;;;5052581;28;20025;-76
2021/10/06 03:20:50;;;;;;;0.15;0.15;;;12.00;99.90;;;;;;5051570;28;20021;-75
2021/10/06 03:23:16;;;;;;;0.10;0.10;;;11.90;99.90;;;;;;5051350;28;20029;-76
2021/10/06 03:25:41;;;;;;;0.00;0.00;;;11.80;99.90;;;;;;5052476;28;20037;-76
2021/10/06 03:28:07;;;;;;;0.00;0.00;;;11.70;99.90;;;;;;5052455;28;20029;-75
2021/10/06 03:30:33;;;;;;;0.00;0.00;;;11.70;99.90;;;;;;5052527;28;20029;-76
2021/10/06 03:32:59;;;;;;;2.45;1.65;;;11.60;99.90;;;;;;5052512;28;20099;-76
2021/10/06 03:35:24;;;;;;;0.00;0.00;;;11.60;99.90;;;;;;5052543;28;20049;-76
2021/10/06 03:37:50;;;;;;;32.40;0.63;;;11.50;99.90;;;;;;5052476;28;20476;-76
2021/10/06 03:40:17;;;;;;;0.00;0.00;;;11.50;99.90;;;;;;5052286;28;20027;-75
2021/10/06 03:42:43;;;;;;;0.00;0.00;;;11.40;99.90;;;;;;5051113;28;20029;-75
2021/10/06 03:45:11;;;;;;;0.00;0.00;;;11.40;99.90;;;;;;5052408;28;20029;-76
2021/10/06 03:47:39;;;;;;;0.00;0.00;;;11.30;99.90;;;;;;5050881;28;20384;-75
2021/10/06 03:50:06;;;;;;;0.00;0.00;;;11.30;99.90;;;;;;5051774;28;20028;-76
2021/10/06 03:52:32;;;;;;;0.00;0.00;;;11.30;99.90;;;;;;5052169;28;20040;-76
2021/10/06 03:54:57;;;;;;;0.00;0.00;;;11.30;99.90;;;;;;5052098;28;20104;-76
2021/10/06 03:57:23;;;;;;;0.20;0.20;;;11.30;99.90;;;;;;5052007;28;20109;-76
2021/10/06 03:59:49;;;;;;;0.00;0.00;;;11.30;99.90;;;;;;5052068;28;20044;-76
2021/10/06 04:02:14;;;;;;;0.73;0.65;;;11.20;99.90;;;;;;5052138;28;20473;-76
2021/10/06 04:04:40;;;;;;;0.22;0.00;;;11.20;99.90;;;;;;5052313;28;20476;-76
2021/10/06 04:07:06;;;;;;;0.65;0.55;;;11.10;99.90;;;;;;5052371;28;20491;-76
2021/10/06 04:09:31;;;;;;;0.80;0.80;;;11.10;99.90;;;;;;5051081;28;20040;-76
2021/10/06 04:11:57;;;;;;;0.00;0.00;;;11.10;99.90;;;;;;5051168;28;20403;-75
2021/10/06 04:14:23;;;;;;;0.00;0.00;;;11.00;99.90;;;;;;5051680;28;20032;-75
2021/10/06 04:16:48;;;;;;;0.00;0.00;;;11.00;99.90;;;;;;5051860;28;20017;-75
2021/10/06 04:19:14;;;;;;;0.00;0.00;;;10.90;99.90;;;;;;5052108;28;20498;-76
2021/10/06 04:21:40;;;;;;;0.00;0.00;;;10.90;99.90;;;;;;5052215;28;20033;-76
2021/10/06 04:24:05;;;;;;;0.00;0.00;;;10.80;99.90;;;;;;5051134;28;20049;-75
2021/10/06 04:26:31;;;;;;;0.00;0.00;;;10.70;99.90;;;;;;5051973;28;20033;-75
2021/10/06 04:28:56;;;;;;;0.05;0.05;;;10.70;99.90;;;;;;5052018;28;20033;-76
2021/10/06 04:31:22;;;;;;;0.00;0.00;;;10.60;99.90;;;;;;5051834;28;20036;-76
2021/10/06 04:33:48;;;;;;;0.00;0.00;;;10.60;99.90;;;;;;5051979;28;20025;-76
2021/10/06 04:36:14;;;;;;;0.32;0.17;;;10.60;99.90;;;;;;5052003;28;20476;-76
2021/10/06 04:38:40;;;;;;;0.00;0.00;;;10.50;99.90;;;;;;5053206;28;20450;-74
2021/10/06 04:41:06;;;;;;;0.60;0.60;;;10.50;99.90;;;;;;5055539;28;20031;-75
2021/10/06 04:43:32;;;;;;;0.00;0.00;;;10.50;99.90;;;;;;5055576;28;20032;-75
2021/10/06 04:45:57;;;;;;;0.30;0.30;;;10.50;99.90;;;;;;5055484;28;20427;-76
2021/10/06 04:48:23;;;;;;;0.00;0.00;;;10.50;99.90;;;;;;5055324;28;20441;-76
2021/10/06 04:50:49;;;;;;;2.08;1.23;;;10.50;99.90;;;;;;5055323;28;20510;-76
2021/10/06 04:53:16;;;;;;;0.00;0.00;;;10.50;99.90;;;;;;5055259;28;20021;-75
2021/10/06 04:55:41;;;;;;;0.00;0.00;;;10.40;99.90;;;;;;5055104;28;20031;-75
2021/10/06 04:58:07;;;;;;;0.00;0.00;;;10.40;99.90;;;;;;5053963;28;20025;-76
2021/10/06 05:00:32;;;;;;;0.10;0.10;;;10.40;99.90;;;;;;5055193;28;20044;-76
2021/10/06 05:03:09;;;;;;;0.00;0.00;;;10.40;99.90;;;;;;5054074;28;20029;-76
2021/10/06 05:05:35;;;;;;;0.03;0.03;;;10.30;99.90;;;;;;5055530;28;20057;-76
2021/10/06 05:08:01;;;;;;;0.00;0.00;;;10.30;99.90;;;;;;5055283;28;20795;-76
2021/10/06 05:10:27;;;;;;;0.00;0.00;;;10.30;99.90;;;;;;5054420;28;20068;-75
2021/10/06 05:12:53;;;;;;;7.22;1.40;;;10.30;99.90;;;;;;5055092;28;20048;-76
2021/10/06 05:15:18;;;;;;;0.63;0.63;;;10.30;99.90;;;;;;5054983;28;20029;-75
2021/10/06 05:17:44;;;;;;;2.20;0.75;;;10.30;99.90;;;;;;5054542;28;20025;-76
2021/10/06 05:20:10;;;;;;;0.00;0.00;;;10.30;99.90;;;;;;5054943;28;20029;-76
2021/10/06 05:22:36;;;;;;;0.00;0.00;;;10.20;99.90;;;;;;5055094;28;20035;-76
2021/10/06 05:25:01;;;;;;;0.68;0.68;;;10.20;99.90;;;;;;5054304;28;20053;-75
2021/10/06 05:27:28;;;;;;;0.00;0.00;;;10.20;99.90;;;;;;5054789;28;20488;-75
2021/10/06 05:29:53;;;;;;;0.00;0.00;;;10.20;99.90;;;;;;5052839;28;20029;-75
2021/10/06 05:32:19;;;;;;;0.00;0.00;;;10.20;99.90;;;;;;5053206;28;20112;-75
2021/10/06 05:34:45;;;;;;;0.00;0.00;;;10.20;99.90;;;;;;5053286;28;20476;-76
2021/10/06 05:37:10;;;;;;;0.00;0.00;;;10.30;99.90;;;;;;5054382;28;20033;-75
2021/10/06 05:39:36;;;;;;;0.00;0.00;;;10.30;99.90;;;;;;5058499;28;20407;-75
2021/10/06 05:42:02;;;;;;;0.10;0.08;;;10.40;99.90;;;;;;5054208;28;20373;-75
2021/10/06 05:44:28;;;;;;;0.55;0.28;;;10.40;99.90;;;;;;5054508;28;20511;-77
2021/10/06 05:46:53;;;;;;;0.10;0.10;;;10.40;99.90;;;;;;5054154;28;20029;-77
2021/10/06 05:49:19;;;;;;;0.00;0.00;;;10.30;99.90;;;;;;5071665;28;20036;-77
2021/10/06 05:51:45;;;;;;;0.47;0.25;;;10.30;99.90;;;;;;5067283;28;20106;-77
2021/10/06 05:54:11;;;;;;;0.00;0.00;;;10.30;99.90;;;;;;5061139;28;20399;-75
2021/10/06 05:56:36;;;;;;;0.10;0.10;;;10.30;99.90;;;;;;5052045;28;20024;-75
2021/10/06 05:59:02;;;;;;;0.00;0.00;;;10.20;99.90;;;;;;5052974;28;20025;-76
2021/10/06 06:01:28;;;;;;;0.45;0.45;;;10.20;99.90;;;;;;5053375;28;20020;-76
2021/10/06 06:03:54;;;;;;;0.10;0.10;;;10.20;99.90;;;;;;5053964;28;20549;-75
2021/10/06 06:06:19;;;;;;;0.00;0.00;;;10.10;99.90;;;;;;5055197;28;20029;-75
2021/10/06 06:08:45;;;;;;;0.00;0.00;;;10.10;99.90;;;;;;5070823;28;20090;-74
2021/10/06 06:11:11;;;;;;;0.00;0.00;;;10.10;99.90;;;;;;5064656;28;20033;-75
2021/10/06 06:13:36;;;;;;;0.30;0.30;;;10.00;99.90;;;;;;5044698;28;20499;-76
2021/10/06 06:16:03;;;;;;;0.00;0.00;;;10.00;99.90;;;;;;5051434;28;20703;-75
2021/10/06 06:18:29;;;;;;;0.88;0.73;;;9.90;99.90;;;;;;5059217;28;20036;-75
2021/10/06 06:20:57;;;;;;;0.00;0.00;;;9.90;99.90;;;;;;5057830;28;20013;-75
2021/10/06 06:23:23;;;;;;;0.32;0.32;;;9.90;99.90;;;;;;5055437;28;20033;-75
2021/10/06 06:25:50;;;;;;;0.20;0.20;;;10.00;99.90;;;;;;5057402;28;20078;-76
2021/10/06 06:28:17;;;;;;;0.20;0.20;;;10.00;99.90;;;;;;5057755;28;20029;-75
2021/10/06 06:30:42;;;;;;;0.05;0.05;;;10.00;99.90;;;;;;5053055;28;20028;-76
2021/10/06 06:33:09;;;;;;;0.60;0.60;;;10.10;99.90;;;;;;5054658;28;20021;-76
2021/10/06 06:35:34;;;;;;;0.00;0.00;;;10.10;99.90;;;;;;5049162;28;20021;-76
2021/10/06 06:38:00;;;;;;;1.00;0.43;;;10.10;99.90;;;;;;5049263;28;20505;-75
2021/10/06 06:40:26;;;;;;;0.35;0.35;;;10.10;99.90;;;;;;5056789;28;20079;-75
2021/10/06 06:42:52;;;;;;;12.68;1.35;;;10.10;99.90;;;;;;5048876;28;20622;-76
2021/10/06 06:45:18;;;;;;;0.35;0.35;;;10.10;99.90;;;;;;5054145;28;20028;-75
2021/10/06 06:47:43;;;;;;;0.08;0.08;;;10.10;99.90;;;;;;5051488;28;20107;-75
2021/10/06 06:50:12;;;;;;;0.47;0.28;;;10.20;99.90;;;;;;5057228;28;21572;-76
2021/10/06 06:52:38;;;;;;;0.88;0.50;;;10.30;99.90;;;;;;5053567;28;20031;-76
2021/10/06 06:55:04;;;;;;;1.00;0.55;;;10.30;99.90;;;;;;5050456;28;20033;-77
2021/10/06 06:57:30;;;;;;;0.10;0.10;;;10.40;99.90;;;;;;5049230;28;20024;-78
2021/10/06 06:59:56;;;;;;;0.45;0.45;;;10.50;99.90;;;;;;5046768;28;20488;-77
2021/10/06 07:02:22;;;;;;;0.00;0.00;;;10.70;99.90;;;;;;5043102;28;20037;-77
2021/10/06 07:04:48;;;;;;;0.00;0.00;;;10.90;99.90;;;;;;5045797;28;20023;-77
2021/10/06 07:07:14;;;;;;;0.73;0.73;;;11.20;99.90;;;;;;5049418;28;20045;-77
2021/10/06 07:09:48;;;;;;;0.00;0.00;;;11.50;99.90;;;;;;5054221;28;20012;-77
2021/10/06 07:12:16;;;;;;;0.10;0.10;;;11.70;99.90;;;;;;5051536;28;20021;-77
2021/10/06 07:14:41;;;;;;;0.00;0.00;;;11.80;99.90;;;;;;5051898;28;20656;-79
2021/10/06 07:17:07;;;;;;;0.00;0.00;;;11.90;99.90;;;;;;5044301;28;20033;-78
2021/10/06 07:19:33;;;;;;;0.00;0.00;;;12.10;99.90;;;;;;5046958;28;20049;-77
2021/10/06 07:21:59;;;;;;;0.47;0.38;;;12.30;99.90;;;;;;5043671;28;20032;-77
2021/10/06 07:24:24;;;;;;;1.23;0.80;;;12.40;99.90;;;;;;5047577;28;20120;-77
2021/10/06 07:26:50;;;;;;;0.88;0.75;;;12.60;99.90;;;;;;5050541;28;20113;-78
2021/10/06 07:29:16;;;;;;;0.10;0.10;;;12.70;99.90;;;;;;5053666;28;20047;-77
2021/10/06 07:31:42;;;;;;;0.40;0.40;;;12.70;99.90;;;;;;5056590;28;20068;-78
2021/10/06 07:34:07;;;;;;;0.00;0.00;;;12.80;99.90;;;;;;5052466;28;20025;-79
2021/10/06 07:36:34;;;;;;;0.10;0.10;;;12.80;99.90;;;;;;5048159;28;20029;-78
2021/10/06 07:39:00;;;;;;;0.00;0.00;;;12.70;99.90;;;;;;5052985;28;20021;-76
2021/10/06 07:41:26;;;;;;;0.25;0.00;;;12.70;99.90;;;;;;5048567;28;20044;-78
2021/10/06 07:43:52;;;;;;;0.20;0.20;;;12.50;99.90;;;;;;5053632;28;20048;-77
2021/10/06 07:46:18;;;;;;;0.32;0.25;;;12.40;99.90;;;;;;5050470;28;20054;-77
2021/10/06 07:48:43;;;;;;;0.00;0.00;;;12.40;99.90;;;;;;5049809;28;20064;-77
2021/10/06 07:51:09;;;;;;;0.57;0.57;;;12.50;99.90;;;;;;5044814;28;20061;-75
2021/10/06 07:53:35;;;;;;;0.00;0.00;;;12.60;99.90;;;;;;5051909;28;20112;-78
2021/10/06 07:56:00;;;;;;;0.05;0.05;;;12.70;99.90;;;;;;5048055;28;20120;-77
2021/10/06 07:58:26;;;;;;;2.08;0.20;;;12.80;99.90;;;;;;5051039;28;20049;-79
2021/10/06 08:00:52;;;;;;;0.13;0.10;;;12.90;99.90;;;;;;5049070;28;20036;-77
2021/10/06 08:03:18;;;;;;;0.03;0.03;;;13.00;99.90;;;;;;5054500;28;20025;-77
2021/10/06 08:05:44;;;;;;;0.05;0.05;;;13.20;99.90;;;;;;5049403;28;20558;-77
2021/10/06 08:08:10;;;;;;;0.13;0.13;;;13.40;99.90;;;;;;5060090;28;20390;-77
2021/10/06 08:10:36;;;;;;;0.00;0.00;;;13.50;99.90;;;;;;5047879;28;20025;-77
2021/10/06 08:13:03;;;;;;;0.10;0.10;;;13.80;99.90;;;;;;5050622;28;20522;-78
2021/10/06 08:15:29;;;;;;;0.00;0.00;;;14.30;99.90;;;;;;5056763;28;20047;-78
2021/10/06 08:17:55;;;;;;;0.20;0.20;;;14.70;99.90;;;;;;5051438;28;20013;-78
2021/10/06 08:20:21;;;;;;;0.00;0.00;;;15.30;99.90;;;;;;5055878;28;20033;-77
2021/10/06 08:22:47;;;;;;;0.00;0.00;;;16.90;99.90;;;;;;5056510;28;20074;-78
2021/10/06 08:25:12;;;;;;;0.00;0.00;;;18.30;99.90;;;;;;5056659;28;20596;-78
2021/10/06 08:27:38;;;;;;;0.00;0.00;;;18.50;99.90;;;;;;5058393;28;20063;-79
2021/10/06 08:30:05;;;;;;;14.13;0.47;;;18.10;99.90;;;;;;5051911;28;20029;-78
2021/10/06 08:32:30;;;;;;;0.25;0.25;;;18.00;99.90;;;;;;5047487;28;20368;-77
2021/10/06 08:34:56;;;;;;;0.70;0.52;;;18.30;99.90;;;;;;5050444;28;20021;-78
2021/10/06 08:37:22;;;;;;;0.00;0.00;;;18.90;99.90;;;;;;5073337;28;20025;-76
2021/10/06 08:39:48;;;;;;;0.13;0.13;;;19.70;99.90;;;;;;5058770;28;20031;-77
2021/10/06 08:42:14;;;;;;;0.10;0.10;;;19.40;99.90;;;;;;5062991;28;20025;-77
2021/10/06 08:44:41;;;;;;;6.03;0.20;;;19.10;99.90;;;;;;5055008;28;20096;-78
2021/10/06 08:47:07;;;;;;;0.20;0.20;;;19.00;99.90;;;;;;5054589;28;20052;-78
2021/10/06 08:49:34;;;;;;;3.10;0.55;;;19.10;99.90;;;;;;5054905;28;20057;-77
2021/10/06 08:52:00;;;;;;;1.75;0.47;;;19.40;99.90;;;;;;5051489;28;20213;-78
2021/10/06 08:54:25;;;;;;;2.92;0.80;;;19.60;99.90;;;;;;5055320;28;20108;-77
2021/10/06 08:56:52;;;;;;;0.28;0.28;;;19.50;99.90;;;;;;5058650;28;20021;-78
2021/10/06 08:59:17;;;;;;;1.40;0.47;;;19.90;99.70;;;;;;5059940;28;20104;-80
2021/10/06 09:01:45;;;;;;;0.25;0.25;;;20.00;99.20;;;;;;5049069;28;20123;-79
2021/10/06 09:04:11;;;;;;;0.00;0.00;;;19.70;99.90;;;;;;5044698;28;20025;-80
2021/10/06 09:06:45;;;;;;;0.30;0.10;;;19.80;99.30;;;;;;5051167;28;20031;-81
2021/10/06 09:09:22;;;;;;;0.28;0.28;;;20.10;99.20;;;;;;5052525;28;20024;-81
2021/10/06 09:11:50;;;;;;;5.68;0.47;;;19.90;99.00;;;;;;5050790;28;20811;-79
2021/10/06 09:14:16;;;;;;;0.00;0.00;;;19.60;99.40;;;;;;5051544;28;20602;-79
2021/10/06 09:16:43;;;;;;;7.78;1.48;;;19.50;99.90;;;;;;5052513;28;20021;-79
2021/10/06 09:19:09;;;;;;;0.32;0.10;;;19.70;99.90;;;;;;5051968;28;20017;-81
2021/10/06 09:21:56;;;;;;;0.20;0.20;;;20.60;99.40;;;;;;5052567;28;20036;-82
2021/10/06 09:24:23;;;;;;;0.80;0.80;;;21.80;98.70;;;;;;5051683;28;20083;-81
2021/10/06 09:27:05;;;;;;;0.10;0.10;;;21.50;97.00;;;;;;5050510;28;20029;-81
2021/10/06 09:29:30;;;;;;;0.10;0.10;;;22.00;98.00;;;;;;5056249;28;20025;-80
2021/10/06 09:31:57;;;;;;;0.03;0.03;;;23.20;95.40;;;;;;5056830;28;20313;-80
2021/10/06 09:34:23;;;;;;;0.10;0.10;;;22.20;95.70;;;;;;5058894;28;20056;-80
2021/10/06 09:36:48;;;;;;;0.00;0.00;;;21.30;97.00;;;;;;5051617;28;20072;-80
2021/10/06 09:39:14;;;;;;;1.27;0.57;;;20.60;98.30;;;;;;5053920;28;20040;-80
2021/10/06 09:41:44;;;;;;;0.10;0.10;;;20.50;98.40;;;;;;5058253;28;20021;-78
2021/10/06 09:44:12;;;;;;;0.90;0.15;;;20.30;98.10;;;;;;5052663;28;20071;-79
2021/10/06 09:46:48;;;;;;;0.38;0.05;;;19.70;99.50;;;;;;5060217;28;20071;-80
2021/10/06 09:49:27;;;;;;;0.00;0.00;;;19.20;99.70;;;;;;5054254;28;20064;-79
2021/10/06 09:52:14;;;;;;;0.00;0.00;;;19.00;99.90;;;;;;5058265;28;20057;-79
2021/10/06 09:54:50;;;;;;;2.65;1.00;;;18.90;99.90;;;;;;5049440;28;20045;-78
2021/10/06 09:57:36;;;;;;;4.20;0.70;;;18.70;99.90;;;;;;5054155;28;20510;-77
2021/10/06 10:00:07;;;;;;;0.00;0.00;;;18.60;99.90;;;;;;5054792;28;20121;-78
2021/10/06 10:02:34;;;;;;;0.00;0.00;;;18.70;99.90;;;;;;5041321;28;20158;-78
2021/10/06 10:05:01;;;;;;;0.80;0.65;;;18.60;99.90;;;;;;5060977;28;20101;-79
2021/10/06 10:07:28;;;;;;;0.00;0.00;;;18.80;99.90;;;;;;5050983;28;20170;-79
2021/10/06 10:09:54;;;;;;;0.00;0.00;;;18.00;99.90;;;;;;5051706;28;20051;-77
2021/10/06 10:12:22;;;;;;;7.13;0.30;;;18.10;99.90;;;;;;5059274;28;20040;-78
2021/10/06 10:14:49;;;;;;;0.17;0.15;;;18.20;99.90;;;;;;5052364;28;20028;-79
2021/10/06 10:17:16;;;;;;;10.45;0.40;;;17.90;99.90;;;;;;5048179;28;20630;-77
2021/10/06 10:19:44;;;;;;;0.00;0.00;;;17.90;99.90;;;;;;5048424;28;20404;-79
2021/10/06 10:22:12;;;;;;;0.00;0.00;;;18.10;99.90;;;;;;5050416;28;21088;-79
2021/10/06 10:24:50;;;;;;;0.00;0.00;;;18.30;99.90;;;;;;5050710;28;20044;-81
2021/10/06 10:27:19;;;;;;;0.20;0.20;;;17.90;99.90;;;;;;5055876;28;20047;-78
2021/10/06 10:29:51;;;;;;;0.00;0.00;;;17.90;99.90;;;;;;5054663;28;20033;-77
2021/10/06 10:32:18;;;;;;;0.25;0.25;;;17.90;99.90;;;;;;5053715;28;20028;-77
2021/10/06 10:35:04;;;;;;;1.17;1.08;;;17.50;99.90;;;;;;5050858;28;20053;-77
2021/10/06 10:37:48;;;;;;;0.00;0.00;;;17.50;99.90;;;;;;5033422;28;20014;-77
2021/10/06 10:40:34;;;;;;;0.00;0.00;;;17.80;99.90;;;;;;5033153;28;20068;-77
2021/10/06 10:43:07;;;;;;;0.03;0.00;;;17.60;99.90;;;;;;5046231;28;20071;-78
2021/10/06 10:45:38;;;;;;;0.55;0.22;;;17.40;99.90;;;;;;5050302;28;20025;-77
2021/10/06 10:48:05;;;;;;;0.73;0.20;;;17.30;99.90;;;;;;5051430;28;20115;-77
2021/10/06 10:50:57;;;;;;;2.03;1.27;;;17.30;99.90;;;;;;5050679;28;20029;-77
2021/10/06 10:53:50;;;;;;;0.90;0.55;;;17.60;99.90;;;;;;5042693;28;20072;-76
2021/10/06 10:56:38;;;;;;;0.25;0.25;;;17.60;99.90;;;;;;5047719;28;20063;-76
2021/10/06 10:59:12;;;;;;;4.55;1.30;;;17.50;99.90;;;;;;5052330;28;20116;-76
2021/10/06 11:02:17;;;;;;;0.45;0.45;;;17.90;99.90;;;;;;5053951;28;20115;-77
2021/10/06 11:05:04;;;;;;;0.08;0.08;;;18.30;99.90;;;;;;5044731;28;20040;-77
2021/10/06 11:07:30;;;;;;;2.72;1.65;;;18.40;99.90;;;;;;5044156;28;20033;-76
2021/10/06 11:09:58;;;;;;;0.20;0.20;;;18.40;99.90;;;;;;5056227;28;20020;-77
2021/10/06 11:12:24;;;;;;;0.82;0.35;;;18.40;99.90;;;;;;5051967;28;20484;-77
2021/10/06 11:15:25;;;;;;;0.20;0.03;;;18.40;99.90;;;;;;5049598;28;20099;-77
2021/10/06 11:18:07;;;;;;;8.15;1.65;;;18.60;99.90;;;;;;5046804;28;20390;-76
2021/10/06 11:20:59;;;;;;;0.35;0.35;;;18.50;99.90;;;;;;5050136;28;20029;-76
2021/10/06 11:23:31;;;;;;;0.20;0.20;;;18.30;99.90;;;;;;5046079;28;20036;-76
2021/10/06 11:26:04;;;;;;;0.70;0.38;;;18.30;99.90;;;;;;5047526;28;20045;-77
2021/10/06 11:28:40;;;;;;;1.38;0.60;;;18.10;99.90;;;;;;5049588;28;20033;-76
2021/10/06 11:31:06;;;;;;;0.22;0.22;;;18.00;99.90;;;;;;5054015;28;20047;-76
2021/10/06 11:33:33;;;;;;;0.20;0.20;;;18.70;99.90;;;;;;5049101;28;20557;-77
2021/10/06 11:36:13;;;;;;;0.00;0.00;;;18.80;99.90;;;;;;5049931;28;20612;-76
2021/10/06 11:38:41;;;;;;;3.20;0.10;;;18.40;99.90;;;;;;5050126;28;20056;-78
2021/10/06 11:41:07;;;;;;;0.00;0.00;;;17.90;99.90;;;;;;5049555;28;20009;-76
2021/10/06 11:43:50;;;;;;;0.63;0.63;;;17.80;99.90;;;;;;5051223;28;20136;-76
2021/10/06 11:46:32;;;;;;;0.00;0.00;;;17.90;99.90;;;;;;5048653;28;20476;-75
2021/10/06 11:49:07;;;;;;;22.80;0.30;;;18.00;99.90;;;;;;5051631;28;20028;-77
2021/10/06 11:51:42;;;;;;;0.00;0.00;;;18.10;99.90;;;;;;5053224;28;20028;-79
2021/10/06 11:54:08;;;;;;;0.40;0.40;;;18.00;99.90;;;;;;5051736;28;20025;-77
2021/10/06 11:56:34;;;;;;;0.00;0.00;;;18.10;99.90;;;;;;5050369;28;20376;-77
2021/10/06 11:59:11;;;;;;;0.00;0.00;;;18.00;99.90;;;;;;5053921;28;20037;-77
2021/10/06 12:01:38;;;;;;;0.05;0.05;;;18.00;99.90;;;;;;5037813;28;20131;-77
2021/10/06 12:04:14;;;;;;;0.00;0.00;;;18.00;99.90;;;;;;5054188;28;20025;-78
2021/10/06 12:06:42;;;;;;;3.63;0.52;;;18.20;99.90;;;;;;5055893;28;20099;-78
2021/10/06 12:09:09;;;;;;;14.23;0.35;;;18.10;99.90;;;;;;5052907;28;20388;-77
2021/10/06 12:11:43;;;;;;;0.00;0.00;;;18.30;99.90;;;;;;5070096;28;20024;-77
2021/10/06 12:14:24;;;;;;;0.90;0.88;;;18.10;99.90;;;;;;5050115;28;20044;-77
2021/10/06 12:17:03;;;;;;;13.68;1.98;;;18.10;99.90;;;;;;5052152;28;20021;-78
2021/10/06 12:19:29;;;;;;;0.10;0.10;;;18.70;99.90;;;;;;5056196;28;20075;-77
2021/10/06 12:21:55;;;;;;;0.00;0.00;;;18.80;99.90;;;;;;5060221;28;20082;-78
2021/10/06 12:24:25;;;;;;;0.03;0.03;;;18.40;99.90;;;;;;5055624;28;20065;-78
2021/10/06 12:26:53;;;;;;;0.98;0.90;;;18.40;99.90;;;;;;5052484;28;20021;-78
2021/10/06 12:29:29;;;;;;;0.00;0.00;;;18.70;99.90;;;;;;5050939;28;20032;-78
2021/10/06 12:32:16;;;;;;;0.30;0.10;;;18.30;99.90;;;;;;5057483;28;20033;-76
2021/10/06 12:34:44;;;;;;;0.00;0.00;;;18.60;99.90;;;;;;5051991;28;20079;-78
2021/10/06 12:37:13;;;;;;;0.13;0.13;;;18.60;99.90;;;;;;5052952;28;20044;-76
2021/10/06 12:39:38;;;;;;;0.00;0.00;;;18.10;99.90;;;;;;5056089;28;20103;-76
2021/10/06 12:42:08;;;;;;;0.03;0.03;;;18.10;99.90;;;;;;5054070;28;20107;-78
2021/10/06 12:44:47;;;;;;;7.78;0.10;;;18.00;99.90;;;;;;5049124;28;20500;-77
2021/10/06 12:47:18;;;;;;;0.20;0.20;;;18.00;99.90;;;;;;5063317;28;20123;-77
2021/10/06 12:49:50;;;;;;;0.70;0.43;;;18.30;99.90;;;;;;5049826;28;20029;-77